Time,TemperatureF,DewpointF,PressureIn,WindDirection,WindDirectionDegrees,WindSpeedMPH,WindSpeedGustMPH,Humidity,HourlyPrecipIn,Conditions,Clouds,dailyrainin,SolarRadiationWatts/m^2,SoftwareType,DateUTC
2013-01-22 00:00:00,0.0,-4.0,-100.00,West,270,5.0,-999.0,84,-99.99,,,-99.99,0.000000,,2013-01-22 05:00:00,
2013-01-22 00:43:00,0.0,-4.0,-100.00,West,270,5.0,-999.0,84,-99.99,,,-99.99,0.000000,,2013-01-22 05:43:00,
2013-01-22 00:53:00,0.0,-4.0,-100.00,West,270,5.0,-999.0,84,-99.99,,,-99.99,0.000000,,2013-01-22 05:53:00,
2013-01-22 03:00:00,-1.0,-4.0,-100.00,WSW,247,2.0,-999.0,86,-99.99,,,-99.99,0.000000,,2013-01-22 08:00:00,
2013-01-22 03:43:00,-1.0,-4.0,-100.00,WSW,247,2.0,-999.0,86,-99.99,,,-99.99,0.000000,,2013-01-22 08:43:00,
2013-01-22 03:53:00,-1.0,-4.0,-100.00,WSW,247,2.0,-999.0,86,-99.99,,,-99.99,0.000000,,2013-01-22 08:53:00,
2013-01-22 06:00:00,-3.0,-7.0,-100.00,WSW,247,1.0,-999.0,83,-99.99,,,-99.99,0.000000,,2013-01-22 11:00:00,
2013-01-22 06:43:00,-3.0,-7.0,-100.00,WSW,247,1.0,-999.0,83,-99.99,,,-99.99,0.000000,,2013-01-22 11:43:00,
2013-01-22 06:54:00,-3.0,-7.0,-100.00,WSW,247,1.0,-999.0,83,-99.99,,,-99.99,0.000000,,2013-01-22 11:54:00,
2013-01-22 09:00:00,0.0,-5.0,-100.00,West,270,3.0,-999.0,82,-99.99,,,-99.99,32.480000,,2013-01-22 14:00:00,
2013-01-22 09:44:00,0.0,-5.0,-100.00,West,270,3.0,-999.0,82,-99.99,,,-99.99,32.480000,,2013-01-22 14:44:00,
2013-01-22 09:54:00,0.0,-5.0,-100.00,West,270,3.0,-999.0,82,-99.99,,,-99.99,32.480000,,2013-01-22 14:54:00,
2013-01-22 12:00:00,5.0,-2.0,-100.00,West,270,6.0,-999.0,70,-99.99,,,-99.99,271.440002,,2013-01-22 17:00:00,
2013-01-22 12:44:00,5.0,-2.0,-100.00,West,270,6.0,-999.0,70,-99.99,,,-99.99,271.440002,,2013-01-22 17:44:00,
2013-01-22 12:54:00,5.0,-2.0,-100.00,West,270,6.0,-999.0,70,-99.99,,,-99.99,271.440002,,2013-01-22 17:54:00,
2013-01-22 15:00:00,7.0,-4.0,-100.00,West,270,6.0,-999.0,59,-99.99,,,-99.99,322.480011,,2013-01-22 20:00:00,
2013-01-22 15:43:00,7.0,-4.0,-100.00,West,270,6.0,-999.0,59,-99.99,,,-99.99,322.480011,,2013-01-22 20:43:00,
2013-01-22 15:54:00,7.0,-4.0,-100.00,West,270,6.0,-999.0,59,-99.99,,,-99.99,322.480011,,2013-01-22 20:54:00,
2013-01-22 18:00:00,4.0,-1.0,-100.00,West,270,2.0,-999.0,82,-99.99,,,-99.99,6.960000,,2013-01-22 23:00:00,
2013-01-22 18:43:00,4.0,-1.0,-100.00,West,270,2.0,-999.0,82,-99.99,,,-99.99,6.960000,,2013-01-22 23:43:00,
2013-01-22 18:53:00,4.0,-1.0,-100.00,West,270,2.0,-999.0,82,-99.99,,,-99.99,6.960000,,2013-01-22 23:53:00,
2013-01-22 21:00:00,0.0,-2.0,-100.00,West,270,0.0,-999.0,88,-99.99,,,-99.99,0.000000,,2013-01-23 02:00:00,
2013-01-22 21:43:00,0.0,-2.0,-100.00,West,270,0.0,-999.0,88,-99.99,,,-99.99,0.000000,,2013-01-23 02:43:00,
2013-01-22 21:54:00,0.0,-2.0,-100.00,West,270,0.0,-999.0,88,-99.99,,,-99.99,0.000000,,2013-01-23 02:54:00,